• Join FlightAware (Why Join?)
  • Login
  • US Flag 
05:01PM EDT


 

Airport Tracker/Info


-or-


 

Live Flight TrackerFlight Track Log ✈ LBQ871 ✈ 08-May-2013 ✈ KRDG - KLZU

Flight Track Log - Related Links

Times and Time Zones

All times are in EDT time to prevent confusion due to time zone crossing. See the LBQ871 flight status page for this flight to view local times or setup timezone preferences in your user account.

Time Position Orientation Groundspeed Altitude Reporting Facility
EDT Latitude Longitude Course Direction KTS MPH feet Rate Location/Type
08:59AM 40.1590 -76.2199 229° Southwest  Level FlightAware Approximate
09:00AM 40.1255 -76.2656 237° Southwest  Level FlightAware Approximate
09:01AM 40.0988 -76.3191 237° Southwest  Level FlightAware Approximate
09:02AM 40.0721 -76.3726 237° Southwest  Level FlightAware Approximate
09:03AM 40.0453 -76.4261 237° Southwest  Level FlightAware Approximate
09:04AM 40.0186 -76.4795 237° Southwest  Level FlightAware Approximate
09:05AM 39.9919 -76.5330 237° Southwest  Level FlightAware Approximate
09:06AM 39.9652 -76.5864 237° Southwest  Level FlightAware Approximate
09:07AM 39.9397 -76.6407 241° Southwest  Level FlightAware Approximate
09:07AM 39.9500 -76.6500 242° Southwest 194 223 8,100  Level Potomac TRACON
09:08AM 39.9159 -76.6964 241° Southwest  Level FlightAware Approximate
09:08AM 39.9333 -76.7167 252° West 197 227 8,100  Level Potomac TRACON
09:09AM 39.8949 -76.7537 252° West  Level FlightAware Approximate
09:09AM 39.9000 -76.7667 229° Southwest 196 226 8,100  Level Potomac TRACON
09:10AM 39.8718 -76.8000 180° South  Level FlightAware Approximate
09:10AM 39.8667 -76.8333 237° Southwest 197 227 8,100  Level Potomac TRACON
09:11AM 39.8459 -76.8501 242° Southwest  Level FlightAware Approximate
09:11AM 39.8333 -76.8833 229° Southwest 195 224 8,100  Level Potomac TRACON
09:12AM 39.8226 -76.9060 242° Southwest  Level FlightAware Approximate
09:12AM 39.8167 -76.9333 247° West 197 227 8,100  Level Potomac TRACON
09:13AM 39.7833 -77.0000 237° Southwest 201 231 8,100  Level Potomac TRACON
09:14AM 39.7667 -77.0667 252° West 200 230 8,100  Level Potomac TRACON
09:15AM 39.7333 -77.1167 229° Southwest 199 229 8,100  Level Potomac TRACON
09:16AM 39.7000 -77.1833 237° Southwest 198 228 8,100  Level Potomac TRACON
09:17AM 39.6667 -77.2500 237° Southwest 198 228 8,100  Level Potomac TRACON
09:18AM 39.6500 -77.3000 247° West 199 229 8,100  Level Potomac TRACON
09:19AM 39.6167 -77.3667 237° Southwest 199 229 8,100  Level Potomac TRACON
09:20AM 39.5833 -77.4333 237° Southwest 197 227 8,100  Level Potomac TRACON
09:21AM 39.5500 -77.4833 229° Southwest 200 230 8,100  Level Potomac TRACON
09:22AM 39.5333 -77.5500 252° West 200 230 8,100  Level Potomac TRACON
09:23AM 39.5000 -77.6000 229° Southwest 196 226 8,100  Level Potomac TRACON
09:24AM 39.4667 -77.6667 237° Southwest 195 224 8,100  Level Potomac TRACON
09:25AM 39.4500 -77.7333 252° West 195 224 8,100  Level Potomac TRACON
09:26AM 39.4167 -77.7833 229° Southwest 193 222 8,100  Level Potomac TRACON
09:27AM 39.3833 -77.8333 229° Southwest 194 223 8,100  Level Potomac TRACON
09:27AM 39.3500 -77.8833 229° Southwest 192 221 8,100  Level Potomac TRACON
09:28AM 39.3167 -77.9167 218° Southwest 185 213 8,100  Level Potomac TRACON
09:29AM 39.2667 -77.9500 207° Southwest 184 212 8,100  Level Potomac TRACON
09:30AM 39.2167 -77.9833 207° Southwest 182 209 8,100  Level Potomac TRACON
09:31AM 39.1833 -78.0167 218° Southwest 187 215 8,100  Level Potomac TRACON
09:32AM 39.1500 -78.0500 218° Southwest 186 214 8,100  Level Potomac TRACON
09:33AM 39.1000 -78.0833 207° Southwest 189 217 8,100  Level Potomac TRACON
09:34AM 39.0872 -78.1028 230° Southwest 189 217 8,100  Level Washington Center
09:35AM 39.0450 -78.1386 213° Southwest 189 217 8,100  Level Washington Center
09:36AM 39.0025 -78.1744 213° Southwest 189 217 8,100  Level Washington Center
09:37AM 38.9600 -78.2131 215° Southwest 189 217 8,100  Level Washington Center
09:38AM 38.9175 -78.2517 215° Southwest 194 223 8,100  Level Washington Center
09:39AM 38.8728 -78.2872 212° Southwest 194 223 8,100  Level Washington Center
09:40AM 38.8303 -78.3231 213° Southwest 199 229 8,100  Level Washington Center
09:41AM 38.7878 -78.3614 215° Southwest 199 229 8,100  Level Washington Center
09:42AM 38.7431 -78.3997 214° Southwest 199 229 8,100  Level Washington Center
09:43AM 38.7006 -78.4381 215° Southwest 199 229 8,100  Level Washington Center
09:44AM 38.6581 -78.4708 211° Southwest 199 229 8,100  Level Washington Center
09:45AM 38.6153 -78.5092 215° Southwest 199 229 8,100  Level Washington Center
09:46AM 38.5728 -78.5472 215° Southwest 199 229 8,100  Level Washington Center
09:47AM 38.5300 -78.5856 215° Southwest 199 229 8,100  Level Washington Center
09:48AM 38.4875 -78.6181 211° Southwest 199 229 8,100  Level Washington Center
09:49AM 38.4450 -78.6536 213° Southwest 199 229 8,100  Level Washington Center
09:50AM 38.4003 -78.6914 214° Southwest 199 229 8,100  Level Washington Center
09:51AM 38.3575 -78.7294 215° Southwest 199 229 8,100  Level Washington Center
09:53AM 38.2667 -78.8000 211° Southwest 186 214 8,100  Level Potomac TRACON
09:54AM 38.2333 -78.8333 218° Southwest 180 207 8,100  Level Potomac TRACON
09:54AM 38.1833 -78.8667 208° Southwest 183 211 8,100  Level Potomac TRACON
09:55AM 38.1500 -78.9000 218° Southwest 181 208 8,100  Level Potomac TRACON
09:56AM 38.1000 -78.9333 208° Southwest 199 229 8,100  Level Potomac TRACON
09:57AM 38.0667 -78.9667 218° Southwest 193 222 8,100  Level Potomac TRACON
09:58AM 38.0167 -79.0000 208° Southwest 196 226 8,100  Level Potomac TRACON
09:59AM 37.9667 -79.0333 208° Southwest 185 213 8,100  Level Potomac TRACON
10:00AM 37.9333 -79.0667 218° Southwest 192 221 8,100  Level Potomac TRACON
10:01AM 37.8833 -79.0833 195° South 179 206 8,100  Level Potomac TRACON
10:03AM 37.8435 -79.1460 231° Southwest  Level FlightAware Approximate
10:10AM 37.6016 -79.4769 225° Southwest  Level FlightAware Approximate
10:11AM 37.5662 -79.5230 227° Southwest  Level FlightAware Approximate
10:12AM 37.5314 -79.5697 227° Southwest  Level FlightAware Approximate
10:13AM 37.4966 -79.6163 227° Southwest  Level FlightAware Approximate
10:14AM 37.4618 -79.6629 227° Southwest  Level FlightAware Approximate
10:15AM 37.4269 -79.7095 227° Southwest  Level FlightAware Approximate
10:16AM 37.3920 -79.7560 227° Southwest  Level FlightAware Approximate
10:17AM 37.3571 -79.8025 227° Southwest  Level FlightAware Approximate
10:17AM 37.1108 -79.2250 227° Southwest 181 208 8,100  Level Washington Center
10:18AM 37.3222 -79.8489 227° Southwest  Level FlightAware Approximate
10:18AM 37.0606 -79.2331 187° South 181 208 8,100  Level Washington Center
10:19AM 37.2873 -79.8953 227° Southwest  Level FlightAware Approximate
10:19AM 37.0161 -79.2467 194° South 181 208 8,100  Level Washington Center
10:20AM 37.2523 -79.9416 227° Southwest  Level FlightAware Approximate
10:20AM 36.9697 -79.2703 202° Southwest 186 214 8,100  Level Washington Center
10:21AM 37.2174 -79.9879 227° Southwest  Level FlightAware Approximate
10:21AM 36.9228 -79.3019 208° Southwest 191 220 8,100  Level Washington Center
10:22AM 36.8819 -79.3364 214° Southwest 191 220 8,100  Level Washington Center
10:23AM 36.8347 -79.3781 215° Southwest 186 214 8,100  Level Washington Center
10:24AM 36.7961 -79.4178 219° Southwest 186 214 8,100  Level Washington Center
10:25AM 36.7572 -79.4572 219° Southwest 186 214 8,100  Level Washington Center
10:27AM 36.6933 -79.5101 214° Southwest  Level FlightAware Approximate
10:34AM 36.3982 -79.7534 236° Southwest  Level FlightAware Approximate
10:35AM 36.3699 -79.8055 236° Southwest  Level FlightAware Approximate
10:36AM 36.3416 -79.8575 236° Southwest  Level FlightAware Approximate
10:37AM 36.3133 -79.9095 236° Southwest  Level FlightAware Approximate
10:38AM 36.2850 -79.9615 236° Southwest  Level FlightAware Approximate
10:39AM 36.2566 -80.0134 236° Southwest  Level FlightAware Approximate
10:40AM 36.2283 -80.0653 236° Southwest  Level FlightAware Approximate
10:41AM 36.1999 -80.1171 236° Southwest  Level FlightAware Approximate
10:42AM 36.1715 -80.1689 236° Southwest  Level FlightAware Approximate
10:43AM 36.1430 -80.2207 236° Southwest  Level FlightAware Approximate
10:44AM 36.1146 -80.2724 236° Southwest  Level FlightAware Approximate
10:44AM 36.1958 -80.3903 236° Southwest 182 209 8,100  Level Atlanta Center
10:45AM 36.0861 -80.3241 236° Southwest  Level FlightAware Approximate
10:45AM 36.1683 -80.4406 236° Southwest 174 200 8,100  Level Atlanta Center
10:46AM 36.0575 -80.3758 236° Southwest  Level FlightAware Approximate
10:46AM 36.1383 -80.4908 234° Southwest 174 200 8,100  Level Atlanta Center
10:47AM 36.0290 -80.4274 236° Southwest  Level FlightAware Approximate
10:47AM 36.1086 -80.5383 232° Southwest 179 206 8,100  Level Atlanta Center
10:48AM 36.0005 -80.4790 236° Southwest  Level FlightAware Approximate
10:48AM 36.0806 -80.5858 234° Southwest 184 212 8,100  Level Atlanta Center
10:49AM 35.9719 -80.5306 236° Southwest  Level FlightAware Approximate
10:49AM 36.0528 -80.6383 237° Southwest 184 212 8,100  Level Atlanta Center
10:50AM 36.0250 -80.6831 232° Southwest 184 212 8,100  Level Atlanta Center
10:51AM 35.9950 -80.7331 233° Southwest 184 212 8,100  Level Atlanta Center
10:52AM 35.9650 -80.7806 232° Southwest 184 212 8,100  Level Atlanta Center
10:53AM 35.9350 -80.8306 233° Southwest 184 212 8,100  Level Atlanta Center
10:54AM 35.9069 -80.8803 235° Southwest 184 212 8,100  Level Atlanta Center
10:55AM 35.8792 -80.9325 237° Southwest 184 212 8,100  Level Atlanta Center
10:56AM 35.8492 -80.9850 235° Southwest 184 212 8,100  Level Atlanta Center
10:57AM 35.8172 -81.0425 236° Southwest 184 212 8,100  Level Atlanta Center
10:58AM 35.7892 -81.0922 235° Southwest 184 212 8,100  Level Atlanta Center
10:59AM 35.7614 -81.1419 235° Southwest 184 212 8,100  Level Atlanta Center
11:00AM 35.7353 -81.1889 236° Southwest 180 207 8,100  Level Atlanta Center
11:01AM 35.7011 -81.2489 235° Southwest 178 205 8,100  Level Atlanta Center
11:02AM 35.6750 -81.2931 234° Southwest 179 206 8,100  Level Atlanta Center
11:03AM 35.6469 -81.3425 235° Southwest 179 206 8,100  Level Atlanta Center
11:04AM 35.6167 -81.3922 233° Southwest 179 206 8,100  Level Atlanta Center
11:04AM 35.6086 -81.4025 226° Southwest 177 204 8,100  Level Atlanta Center
11:05AM 35.5844 -81.4469 236° Southwest 178 205 8,100  Level Atlanta Center
11:06AM 35.5606 -81.4936 238° Southwest 179 206 8,100  Level Atlanta Center
11:07AM 35.5322 -81.5428 235° Southwest 179 206 8,100  Level Atlanta Center
11:08AM 35.5039 -81.5922 235° Southwest 179 206 8,100  Level Atlanta Center
11:09AM 35.4900 -81.6156 234° Southwest 180 207 8,100  Level Atlanta Center
11:09AM 35.4736 -81.6442 235° Southwest 179 206 8,100  Level Atlanta Center
11:09AM 35.4656 -81.6572 233° Southwest 181 208 8,100  Level Atlanta Center
11:10AM 35.4456 -81.6908 234° Southwest 179 206 8,100  Level Atlanta Center
11:10AM 35.4353 -81.7064 231° Southwest 182 209 8,100 -240 Level Atlanta Center
11:11AM 35.4150 -81.7403 234° Southwest 179 206 7,900 -540 Descending Atlanta Center
11:11AM 35.4069 -81.7556 237° Southwest 182 209 7,600 -840 Descending Atlanta Center
11:12AM 35.3847 -81.7894 231° Southwest 184 212 7,100 -360 Descending Atlanta Center
11:13AM 35.3564 -81.8461 239° Southwest 196 226 7,000  Descending Atlanta Center
11:14AM 35.3217 -81.8878 224° Southwest 196 226 7,100  Climbing Atlanta Center
11:15AM 35.2678 -81.8994 190° South 184 212 7,100  Level Atlanta Center
11:16AM 35.2178 -81.9108 191° South 196 226 7,100 -120 Level Atlanta Center
11:18AM 35.2017 -81.9995 257° West  Level FlightAware Approximate
11:25AM 35.0243 -82.3730 235° Southwest  Level FlightAware Approximate
11:26AM 34.9947 -82.4239 235° Southwest  Level FlightAware Approximate
11:27AM 34.9651 -82.4748 235° Southwest  Level FlightAware Approximate
11:28AM 34.9354 -82.5257 235° Southwest  Level FlightAware Approximate
11:29AM 34.9057 -82.5766 235° Southwest  Level FlightAware Approximate
11:30AM 34.8760 -82.6274 235° Southwest  Level FlightAware Approximate
11:30AM 34.7714 -82.6506 234° Southwest 194 223 6,000  Level Atlanta Center
11:31AM 34.8463 -82.6781 235° Southwest  Level FlightAware Approximate
11:31AM 34.7428 -82.6992 234° Southwest 188 216 6,000  Level Atlanta Center
11:32AM 34.8165 -82.7289 234° Southwest  Level FlightAware Approximate
11:32AM 34.7164 -82.7550 240° Southwest 188 216 6,000  Level Atlanta Center
11:33AM 34.7868 -82.7796 234° Southwest  Level FlightAware Approximate
11:33AM 34.6875 -82.8036 234° Southwest 188 216 6,000  Level Atlanta Center
11:34AM 34.7570 -82.8302 234° Southwest  Level FlightAware Approximate
11:34AM 34.6608 -82.8569 239° Southwest 188 216 6,000  Level Atlanta Center
11:35AM 34.7271 -82.8808 234° Southwest  Level FlightAware Approximate
11:35AM 34.6322 -82.9103 237° Southwest 188 216 6,000  Level Atlanta Center
11:36AM 34.6973 -82.9314 234° Southwest  Level FlightAware Approximate
11:36AM 34.6075 -82.9586 238° Southwest 188 216 6,000  Level Atlanta Center
11:37AM 34.5789 -83.0094 236° Southwest 188 216 6,000  Level Atlanta Center
11:38AM 34.5522 -83.0603 238° Southwest 188 216 6,000  Level Atlanta Center
11:39AM 34.5256 -83.1133 239° Southwest 188 216 6,000  Level Atlanta Center
11:40AM 34.4944 -83.1642 233° Southwest 193 222 6,000  Level Atlanta Center
11:41AM 34.4614 -83.2075 227° Southwest 188 216 6,000  Level Atlanta Center
11:42AM 34.4242 -83.2581 228° Southwest 188 216 6,000  Level Atlanta Center
11:43AM 34.3911 -83.3114 233° Southwest 188 216 6,000  Level Atlanta Center
11:44AM 34.3581 -83.3569 229° Southwest 188 216 6,000  Level Atlanta Center
11:45AM 34.3289 -83.4050 234° Southwest 188 216 6,000  Level Atlanta Center
11:46AM 34.2981 -83.4553 233° Southwest 188 216 6,000 -420 Level Atlanta Center
11:47AM 34.2669 -83.5083 235° Southwest 190 219 5,200 -660 Descending Atlanta Center
11:48AM 34.2358 -83.5564 232° Southwest 199 229 4,700 -480 Descending Atlanta Center
11:49AM 34.2006 -83.6094 231° Southwest 204 235 4,300 -300 Descending Atlanta Center
11:52AM 34.1333 -83.7167 233° Southwest 190 219 3,800 -300 Descending Atlanta TRACON
11:53AM 34.0833 -83.7667 220° Southwest 192 221 3,500 -360 Descending Atlanta TRACON
11:54AM 34.0500 -83.8167 231° Southwest 189 217 3,100 -540 Descending Atlanta TRACON
11:55AM 34.0167 -83.8667 231° Southwest 179 206 2,500 -600 Descending Atlanta TRACON